Current Weather

Eureka

Eureka, Canada (CWEU)

Report from: Monday, February 6, 2023 12:00 AM CST
Current time: Monday, February 6, 2023 12:17 AM CST

Nearby weather
Weather history
Weather forecast

Present weatherIce crystals
Temperature-41.0°C (-41.8°F)
Wind chill-59.8°C (-75.7°F)
Dew point-46.0°C (-50.8°F)
Winds 16 kts (8.2 m/s, 18.4 mph) East-Southeast (120°)
Visibility15 mi. (24.1 km)
Clouds Few clouds 23,000 ft. (7,010 m)
Altimeter29.01 in.Hg (982 mB)
Relative humidity58 %
Density altitude-6,446 ft. (-1,965 m)
Sea-level pressure108.4 kPa (1084 mB, 32.02 in.Hg)
Flight conditions Visual Meteorological Conditions
Raw dataCWEU 060600Z 12016KT 15SM IC FEW230 M41/M46 A2901 RMK CI1 CI TR SLP844
An error has occurred. This application may no longer respond until reloaded. Reload 🗙